createdAt,value
2022-09-24T00:01:56.719Z,93.23
2022-09-24T00:06:58.397Z,93.18
2022-09-24T00:12:01.057Z,93.25
2022-09-24T00:17:04.016Z,93.21
2022-09-24T00:22:06.088Z,93.14
2022-09-24T00:27:07.681Z,93.05
2022-09-24T00:32:10.646Z,92.94
2022-09-24T00:37:12.722Z,93.39
2022-09-24T00:42:14.728Z,92.97
2022-09-24T00:47:29.854Z,93.01
2022-09-24T00:52:32.158Z,92.94
2022-09-24T00:57:35.044Z,93.10
2022-09-24T01:02:42.371Z,93.42
2022-09-24T01:07:44.287Z,93.71
2022-09-24T01:12:57.129Z,93.55
2022-09-24T01:18:07.825Z,93.23
2022-09-24T01:23:34.366Z,93.62
2022-09-24T01:28:53.720Z,93.78
2022-09-24T01:34:01.060Z,93.43
2022-09-24T01:39:07.065Z,92.69
2022-09-24T01:44:10.552Z,92.84
2022-09-24T01:49:14.038Z,92.47
2022-09-24T01:54:21.908Z,92.45
2022-09-24T01:59:31.878Z,90.58
2022-09-24T02:04:40.812Z,90.14
2022-09-24T02:09:44.256Z,90.12
2022-09-24T02:14:52.041Z,90.94
2022-09-24T02:19:59.121Z,90.76
2022-09-24T02:25:05.121Z,90.55
2022-09-24T02:30:08.667Z,90.91
2022-09-24T02:35:12.777Z,90.73
2022-09-24T02:40:15.731Z,90.79
2022-09-24T02:45:17.951Z,91.35
2022-09-24T02:50:20.972Z,91.44
2022-09-24T02:55:23.059Z,91.49
2022-09-24T03:00:25.143Z,91.35
2022-09-24T03:05:28.317Z,90.82
2022-09-24T03:10:29.920Z,90.67
2022-09-24T03:15:31.720Z,90.21
2022-09-24T03:20:34.691Z,89.93
2022-09-24T03:25:36.727Z,89.87
2022-09-24T03:30:38.331Z,90.60
2022-09-24T03:35:41.866Z,90.75
2022-09-24T03:40:43.962Z,90.56
2022-09-24T03:45:46.063Z,90.64
2022-09-24T03:50:50.053Z,90.64
2022-09-24T03:55:55.265Z,91.06
2022-09-24T04:00:57.153Z,91.79
2022-09-24T04:06:00.201Z,91.50
2022-09-24T04:11:01.886Z,91.70
2022-09-24T04:16:04.531Z,92.34
2022-09-24T04:21:08.918Z,92.20
2022-09-24T04:26:10.896Z,92.19
2022-09-24T04:31:12.645Z,91.98
2022-09-24T04:36:16.073Z,92.00
2022-09-24T04:41:17.849Z,91.94
2022-09-24T04:46:19.531Z,92.21
2022-09-24T04:51:22.859Z,92.14
2022-09-24T04:56:24.615Z,92.64
2022-09-24T05:01:27.078Z,92.96
2022-09-24T05:06:30.311Z,92.44
2022-09-24T05:11:32.167Z,92.93
2022-09-24T05:16:34.457Z,92.97
2022-09-24T05:21:37.915Z,91.79
2022-09-24T05:26:39.859Z,91.14
2022-09-24T05:31:41.868Z,90.82
2022-09-24T05:36:45.332Z,90.64
2022-09-24T05:41:47.904Z,90.75
2022-09-24T05:46:51.152Z,90.82
2022-09-24T05:51:56.738Z,90.86
2022-09-24T05:56:58.739Z,91.05
2022-09-24T06:02:00.467Z,90.43
2022-09-24T06:07:03.473Z,89.73
2022-09-24T06:12:07.499Z,88.05
2022-09-24T06:17:09.664Z,85.83
2022-09-24T06:22:13.114Z,85.51
2022-09-24T06:27:15.154Z,83.04
2022-09-24T06:32:17.175Z,81.43
2022-09-24T06:37:20.198Z,81.81
2022-09-24T06:42:21.811Z,80.02
2022-09-24T06:47:23.579Z,78.59
2022-09-24T06:52:29.508Z,78.91
2022-09-24T06:57:31.568Z,78.19
2022-09-24T07:02:33.473Z,78.31
2022-09-24T07:07:36.670Z,79.05
2022-09-24T07:12:41.461Z,78.27
2022-09-24T07:17:43.336Z,78.19
2022-09-24T07:22:46.704Z,77.56
2022-09-24T07:27:48.804Z,76.67
2022-09-24T07:32:55.436Z,77.75
2022-09-24T07:38:00.076Z,77.79
2022-09-24T07:43:01.762Z,77.54
2022-09-24T07:48:05.450Z,74.96
2022-09-24T07:53:10.331Z,73.82
2022-09-24T07:58:15.321Z,73.97
2022-09-24T08:03:16.992Z,72.36
2022-09-24T08:08:19.981Z,71.67
2022-09-24T08:13:26.863Z,70.78
2022-09-24T08:18:31.759Z,68.97
2022-09-24T08:23:36.169Z,68.79
2022-09-24T08:28:39.136Z,67.60
2022-09-24T08:33:41.316Z,68.00
2022-09-24T08:38:44.393Z,66.85
2022-09-24T08:43:54.970Z,65.33
2022-09-24T08:48:57.975Z,65.59
2022-09-24T08:54:06.419Z,65.48
2022-09-24T08:59:23.117Z,66.64
2022-09-24T09:04:29.103Z,66.57
2022-09-24T09:09:43.251Z,65.81
2022-09-24T09:14:54.417Z,67.05
2022-09-24T09:19:58.432Z,66.67
2022-09-24T09:25:13.101Z,64.70
2022-09-24T09:30:18.305Z,64.15
2022-09-24T09:35:26.152Z,62.91
2022-09-24T09:40:35.736Z,64.26
2022-09-24T09:45:44.643Z,64.72
2022-09-24T09:50:48.646Z,64.61
2022-09-24T09:55:56.975Z,65.53
2022-09-24T10:01:07.203Z,66.80
2022-09-24T10:06:10.934Z,64.17
2022-09-24T10:11:16.593Z,62.47
2022-09-24T10:16:18.894Z,59.88
2022-09-24T10:21:31.188Z,61.44
2022-09-24T10:26:40.931Z,61.74
2022-09-24T10:31:50.986Z,60.48
2022-09-24T10:37:19.801Z,59.64
2022-09-24T10:42:28.529Z,58.57
2022-09-24T10:48:08.726Z,59.05
2022-09-24T10:53:20.254Z,58.98
2022-09-24T10:58:57.352Z,60.92
2022-09-24T11:04:27.583Z,61.87
2022-09-24T11:09:53.207Z,58.09
2022-09-24T11:15:31.653Z,55.61
2022-09-24T11:20:40.795Z,55.80
2022-09-24T11:25:59.867Z,57.92
2022-09-24T11:31:32.401Z,55.52
2022-09-24T11:36:57.140Z,54.67
2022-09-24T11:42:30.650Z,56.16
2022-09-24T11:48:21.113Z,56.60
2022-09-24T11:53:40.879Z,55.83
2022-09-24T11:59:09.371Z,56.26
2022-09-24T12:04:29.836Z,58.83
2022-09-24T12:09:37.041Z,54.62
2022-09-24T12:14:48.226Z,54.30
2022-09-24T12:19:56.507Z,56.01
2022-09-24T12:25:00.387Z,53.44
2022-09-24T12:30:15.585Z,54.17
2022-09-24T12:35:32.377Z,53.76
2022-09-24T12:41:10.186Z,53.49
2022-09-24T12:46:20.227Z,51.63
2022-09-24T12:51:24.477Z,49.17
2022-09-24T12:56:29.454Z,48.06
2022-09-24T13:01:33.001Z,48.14
2022-09-24T13:06:38.036Z,47.28
2022-09-24T13:11:40.402Z,48.79
2022-09-24T13:16:45.854Z,47.76
2022-09-24T13:21:56.768Z,49.46
2022-09-24T13:27:21.088Z,51.22
2022-09-24T13:32:23.160Z,44.85
2022-09-24T13:37:34.586Z,48.63
2022-09-24T13:42:45.723Z,50.00
2022-09-24T13:47:51.656Z,51.01
2022-09-24T13:52:58.314Z,50.50
2022-09-24T13:58:00.626Z,51.87
2022-09-24T14:03:14.429Z,49.87
2022-09-24T14:08:21.315Z,53.10
2022-09-24T14:13:25.553Z,52.93
2022-09-24T14:18:28.754Z,54.42
2022-09-24T14:23:38.169Z,54.94
2022-09-24T14:28:40.121Z,54.46
2022-09-24T14:33:42.176Z,56.27
2022-09-24T14:38:54.029Z,56.83
2022-09-24T14:44:01.132Z,54.84
2022-09-24T14:49:07.155Z,54.63
2022-09-24T14:54:23.784Z,54.85
2022-09-24T14:59:30.116Z,55.41
2022-09-24T15:04:31.954Z,56.99
2022-09-24T15:09:35.215Z,56.61
2022-09-24T15:14:37.241Z,57.18
2022-09-24T15:19:39.224Z,57.21
2022-09-24T15:24:42.225Z,56.94
2022-09-24T15:29:43.930Z,58.08
2022-09-24T15:34:46.377Z,60.32
2022-09-24T15:39:50.246Z,61.06
2022-09-24T15:44:52.614Z,60.78
2022-09-24T15:49:54.597Z,61.04
2022-09-24T15:55:00.427Z,61.52
2022-09-24T16:00:02.648Z,62.67
2022-09-24T16:05:11.055Z,62.83
2022-09-24T16:10:15.290Z,63.53
2022-09-24T16:15:17.090Z,63.07
2022-09-24T16:20:19.183Z,63.03
2022-09-24T16:25:23.147Z,64.20
2022-09-24T16:30:25.296Z,66.35
2022-09-24T16:35:27.165Z,67.32
2022-09-24T16:40:30.312Z,67.91
2022-09-24T16:45:32.760Z,68.14
2022-09-24T16:50:34.438Z,69.59
2022-09-24T16:55:37.528Z,71.09
2022-09-24T17:00:41.335Z,70.19
2022-09-24T17:05:42.937Z,71.49
2022-09-24T17:10:51.659Z,70.02
2022-09-24T17:15:54.676Z,72.08
2022-09-24T17:21:00.434Z,72.82
2022-09-24T17:26:05.966Z,71.87
2022-09-24T17:31:10.667Z,70.85
2022-09-24T17:36:12.825Z,70.78
2022-09-24T17:41:16.321Z,71.26
2022-09-24T17:46:19.875Z,71.20
2022-09-24T17:51:23.154Z,70.93
2022-09-24T17:56:27.967Z,71.02
2022-09-24T18:01:31.719Z,70.57
2022-09-24T18:06:36.659Z,70.53
2022-09-24T18:11:42.941Z,71.00
2022-09-24T18:16:45.744Z,70.99
2022-09-24T18:21:48.483Z,70.73
2022-09-24T18:26:52.025Z,71.64
2022-09-24T18:31:53.665Z,71.65
2022-09-24T18:36:55.600Z,71.06
2022-09-24T18:41:58.698Z,71.60
2022-09-24T18:47:00.437Z,71.63
2022-09-24T18:52:02.281Z,72.30
2022-09-24T18:57:05.813Z,72.16
2022-09-24T19:02:07.911Z,72.50
2022-09-24T19:07:09.738Z,72.43
2022-09-24T19:12:12.773Z,72.58
2022-09-24T19:17:14.808Z,71.29
2022-09-24T19:22:16.472Z,71.57
2022-09-24T19:27:19.657Z,71.97
2022-09-24T19:32:21.639Z,73.05
2022-09-24T19:37:23.628Z,73.61
2022-09-24T19:42:26.962Z,74.05
2022-09-24T19:47:28.651Z,73.71
2022-09-24T19:52:30.536Z,75.44
2022-09-24T19:57:34.048Z,73.28
2022-09-24T20:02:36.539Z,74.13
2022-09-24T20:07:38.691Z,74.66
2022-09-24T20:12:41.903Z,75.98
2022-09-24T20:17:44.692Z,75.83
2022-09-24T20:22:46.396Z,75.43
2022-09-24T20:27:49.574Z,74.43
2022-09-24T20:32:51.561Z,74.96
2022-09-24T20:37:53.413Z,76.71
2022-09-24T20:42:56.543Z,77.47
2022-09-24T20:47:58.278Z,77.10
2022-09-24T20:53:00.008Z,77.89
2022-09-24T20:58:03.033Z,77.03
2022-09-24T21:03:20.228Z,76.22
2022-09-24T21:08:26.384Z,75.60
2022-09-24T21:13:29.402Z,75.56
2022-09-24T21:18:39.610Z,75.38
2022-09-24T21:23:43.348Z,75.56
2022-09-24T21:28:48.818Z,76.85
2022-09-24T21:33:52.107Z,77.29
2022-09-24T21:38:54.804Z,77.46
2022-09-24T21:43:58.303Z,77.14
2022-09-24T21:49:01.246Z,76.59
2022-09-24T21:54:05.287Z,75.97
2022-09-24T21:59:08.662Z,77.08
2022-09-24T22:04:10.372Z,77.98
2022-09-24T22:09:12.014Z,79.17
2022-09-24T22:14:15.156Z,79.40
2022-09-24T22:19:16.909Z,79.79
2022-09-24T22:24:19.094Z,79.49
2022-09-24T22:29:22.606Z,79.77
2022-09-24T22:34:24.886Z,80.52
2022-09-24T22:39:26.803Z,80.74
2022-09-24T22:44:29.822Z,80.94
2022-09-24T22:49:31.509Z,82.02
2022-09-24T22:54:33.171Z,81.90
2022-09-24T22:59:36.154Z,82.28
2022-09-24T23:04:38.324Z,83.11
2022-09-24T23:09:40.020Z,83.45
2022-09-24T23:14:43.592Z,84.36
2022-09-24T23:19:45.285Z,84.50
2022-09-24T23:24:47.452Z,84.52
2022-09-24T23:29:51.317Z,84.62
2022-09-24T23:34:53.261Z,84.18
2022-09-24T23:39:55.528Z,84.16
2022-09-24T23:44:58.483Z,84.46
2022-09-24T23:50:00.076Z,82.83
2022-09-24T23:55:01.736Z,81.49
